sensor_id;sensor_type;location;lat;lon;timestamp;pressure;altitude;pressure_sealevel;temperature;humidity
11971;BME280;6045;42.682;23.294;2024-03-23T00:53:38;94663.19;;;8.08;58.84
11971;BME280;6045;42.682;23.294;2024-03-23T00:56:07;94661.59;;;8.07;59.27
11971;BME280;6045;42.682;23.294;2024-03-23T00:58:33;94659.94;;;8.06;59.39
11971;BME280;6045;42.682;23.294;2024-03-23T01:01:01;94664.66;;;8.04;59.53
11971;BME280;6045;42.682;23.294;2024-03-23T01:03:29;94656.50;;;7.99;59.92
11971;BME280;6045;42.682;23.294;2024-03-23T01:05:59;94658.56;;;7.97;60.06
11971;BME280;6045;42.682;23.294;2024-03-23T01:08:26;94663.91;;;7.91;60.11
11971;BME280;6045;42.682;23.294;2024-03-23T01:10:54;94654.72;;;7.87;60.11
11971;BME280;6045;42.682;23.294;2024-03-23T01:13:20;94653.31;;;7.84;59.97
11971;BME280;6045;42.682;23.294;2024-03-23T01:15:48;94651.66;;;7.83;60.90
11971;BME280;6045;42.682;23.294;2024-03-23T01:18:14;94658.22;;;7.81;60.68
11971;BME280;6045;42.682;23.294;2024-03-23T01:20:41;94655.97;;;7.78;60.06
11971;BME280;6045;42.682;23.294;2024-03-23T01:23:07;94658.47;;;7.73;60.21
11971;BME280;6045;42.682;23.294;2024-03-23T01:25:35;94652.16;;;7.67;60.25
11971;BME280;6045;42.682;23.294;2024-03-23T01:28:05;94655.41;;;7.69;60.59
11971;BME280;6045;42.682;23.294;2024-03-23T01:30:33;94660.31;;;7.66;60.84
11971;BME280;6045;42.682;23.294;2024-03-23T01:32:59;94656.69;;;7.60;60.81
11971;BME280;6045;42.682;23.294;2024-03-23T01:35:26;94661.00;;;7.54;60.89
11971;BME280;6045;42.682;23.294;2024-03-23T01:37:52;94656.91;;;7.52;60.76
11971;BME280;6045;42.682;23.294;2024-03-23T01:40:19;94657.53;;;7.47;60.71
11971;BME280;6045;42.682;23.294;2024-03-23T01:42:56;94648.53;;;7.42;60.81
11971;BME280;6045;42.682;23.294;2024-03-23T01:45:23;94658.81;;;7.38;60.93
11971;BME280;6045;42.682;23.294;2024-03-23T01:47:50;94650.41;;;7.35;60.84
11971;BME280;6045;42.682;23.294;2024-03-23T01:50:17;94653.09;;;7.28;60.95
11971;BME280;6045;42.682;23.294;2024-03-23T01:52:43;94652.91;;;7.23;60.90
11971;BME280;6045;42.682;23.294;2024-03-23T01:55:10;94651.47;;;7.21;61.05
11971;BME280;6045;42.682;23.294;2024-03-23T01:57:37;94659.88;;;7.18;60.85
11971;BME280;6045;42.682;23.294;2024-03-23T02:00:06;94651.72;;;7.13;61.21
11971;BME280;6045;42.682;23.294;2024-03-23T02:02:32;94651.13;;;7.11;61.54
11971;BME280;6045;42.682;23.294;2024-03-23T02:04:59;94653.94;;;7.09;61.45
11971;BME280;6045;42.682;23.294;2024-03-23T02:07:25;94656.84;;;7.08;61.61
11971;BME280;6045;42.682;23.294;2024-03-23T02:09:52;94657.44;;;7.03;61.43
11971;BME280;6045;42.682;23.294;2024-03-23T02:12:19;94658.69;;;7.01;61.69
11971;BME280;6045;42.682;23.294;2024-03-23T02:14:46;94654.22;;;6.95;61.94
11971;BME280;6045;42.682;23.294;2024-03-23T02:17:14;94654.00;;;6.89;61.96
11971;BME280;6045;42.682;23.294;2024-03-23T02:19:41;94658.50;;;6.89;62.21
11971;BME280;6045;42.682;23.294;2024-03-23T02:22:07;94664.81;;;6.88;62.30
11971;BME280;6045;42.682;23.294;2024-03-23T02:24:37;94654.63;;;6.85;62.48
11971;BME280;6045;42.682;23.294;2024-03-23T02:27:03;94661.56;;;6.86;62.87
11971;BME280;6045;42.682;23.294;2024-03-23T02:29:30;94667.09;;;6.84;62.73
11971;BME280;6045;42.682;23.294;2024-03-23T02:31:56;94668.72;;;6.79;62.77
11971;BME280;6045;42.682;23.294;2024-03-23T02:34:24;94667.50;;;6.75;62.86
11971;BME280;6045;42.682;23.294;2024-03-23T02:36:50;94663.00;;;6.75;62.88
11971;BME280;6045;42.682;23.294;2024-03-23T02:39:17;94671.38;;;6.79;62.93
11971;BME280;6045;42.682;23.294;2024-03-23T02:41:44;94665.22;;;6.78;62.61
11971;BME280;6045;42.682;23.294;2024-03-23T02:44:11;94659.31;;;6.76;63.04
11971;BME280;6045;42.682;23.294;2024-03-23T02:46:37;94659.94;;;6.72;63.23
11971;BME280;6045;42.682;23.294;2024-03-23T02:49:04;94658.50;;;6.69;63.23
11971;BME280;6045;42.682;23.294;2024-03-23T02:51:30;94656.47;;;6.65;63.59
11971;BME280;6045;42.682;23.294;2024-03-23T02:53:57;94660.34;;;6.62;63.33
11971;BME280;6045;42.682;23.294;2024-03-23T02:56:23;94650.75;;;6.61;63.69
11971;BME280;6045;42.682;23.294;2024-03-23T02:58:51;94647.50;;;6.59;63.78
11971;BME280;6045;42.682;23.294;2024-03-23T03:01:17;94649.50;;;6.57;63.50
11971;BME280;6045;42.682;23.294;2024-03-23T03:03:44;94654.44;;;6.47;64.28
11971;BME280;6045;42.682;23.294;2024-03-23T03:06:10;94651.97;;;6.46;64.03
11971;BME280;6045;42.682;23.294;2024-03-23T03:08:37;94644.63;;;6.41;64.23
11971;BME280;6045;42.682;23.294;2024-03-23T03:11:03;94650.53;;;6.37;64.56
11971;BME280;6045;42.682;23.294;2024-03-23T03:13:30;94653.78;;;6.39;64.16
11971;BME280;6045;42.682;23.294;2024-03-23T03:15:57;94650.75;;;6.35;64.47
11971;BME280;6045;42.682;23.294;2024-03-23T03:18:24;94649.09;;;6.34;64.56
11971;BME280;6045;42.682;23.294;2024-03-23T03:20:54;94653.41;;;6.35;64.59
11971;BME280;6045;42.682;23.294;2024-03-23T03:23:21;94658.09;;;6.33;64.86
11971;BME280;6045;42.682;23.294;2024-03-23T03:25:47;94656.06;;;6.35;64.71
11971;BME280;6045;42.682;23.294;2024-03-23T03:28:14;94655.22;;;6.28;64.78
11971;BME280;6045;42.682;23.294;2024-03-23T03:30:39;94657.88;;;6.28;64.91
11971;BME280;6045;42.682;23.294;2024-03-23T03:33:08;94649.94;;;6.28;64.96
11971;BME280;6045;42.682;23.294;2024-03-23T03:35:34;94664.19;;;6.27;65.07
11971;BME280;6045;42.682;23.294;2024-03-23T03:38:01;94657.28;;;6.26;65.11
11971;BME280;6045;42.682;23.294;2024-03-23T03:40:27;94657.66;;;6.23;64.96
11971;BME280;6045;42.682;23.294;2024-03-23T03:42:53;94659.91;;;6.19;64.92
11971;BME280;6045;42.682;23.294;2024-03-23T03:45:19;94655.84;;;6.17;64.96
11971;BME280;6045;42.682;23.294;2024-03-23T03:47:46;94661.31;;;6.15;64.95
11971;BME280;6045;42.682;23.294;2024-03-23T03:50:14;94660.50;;;6.15;65.27
11971;BME280;6045;42.682;23.294;2024-03-23T03:52:41;94658.06;;;6.13;65.38
11971;BME280;6045;42.682;23.294;2024-03-23T03:55:13;94655.81;;;6.10;65.60
11971;BME280;6045;42.682;23.294;2024-03-23T03:57:41;94654.38;;;6.08;65.45
11971;BME280;6045;42.682;23.294;2024-03-23T04:00:08;94656.63;;;6.04;65.71
11971;BME280;6045;42.682;23.294;2024-03-23T04:02:36;94660.91;;;6.05;65.51
11971;BME280;6045;42.682;23.294;2024-03-23T04:05:04;94663.97;;;6.09;65.80
11971;BME280;6045;42.682;23.294;2024-03-23T04:07:31;94661.09;;;6.10;65.56
11971;BME280;6045;42.682;23.294;2024-03-23T04:09:58;94671.94;;;6.09;66.00
11971;BME280;6045;42.682;23.294;2024-03-23T04:12:24;94666.63;;;6.09;65.87
11971;BME280;6045;42.682;23.294;2024-03-23T04:14:51;94665.81;;;6.08;65.65
11971;BME280;6045;42.682;23.294;2024-03-23T04:17:17;94669.91;;;6.11;65.57
11971;BME280;6045;42.682;23.294;2024-03-23T04:19:44;94667.84;;;6.06;65.79
11971;BME280;6045;42.682;23.294;2024-03-23T04:22:10;94671.31;;;6.07;65.92
11971;BME280;6045;42.682;23.294;2024-03-23T04:24:38;94672.75;;;6.09;65.61
11971;BME280;6045;42.682;23.294;2024-03-23T04:27:04;94668.66;;;6.07;65.59
11971;BME280;6045;42.682;23.294;2024-03-23T04:29:31;94672.94;;;6.08;65.83
11971;BME280;6045;42.682;23.294;2024-03-23T04:31:57;94667.03;;;6.06;65.97
11971;BME280;6045;42.682;23.294;2024-03-23T04:34:24;94670.66;;;5.92;66.29
11971;BME280;6045;42.682;23.294;2024-03-23T04:36:50;94675.38;;;5.96;66.30
11971;BME280;6045;42.682;23.294;2024-03-23T04:39:17;94671.09;;;6.02;66.26
11971;BME280;6045;42.682;23.294;2024-03-23T04:41:46;94679.28;;;6.07;65.97
11971;BME280;6045;42.682;23.294;2024-03-23T04:44:13;94673.59;;;6.10;66.12
11971;BME280;6045;42.682;23.294;2024-03-23T04:46:40;94676.63;;;6.13;65.63
11971;BME280;6045;42.682;23.294;2024-03-23T04:49:07;94680.94;;;6.14;65.86
11971;BME280;6045;42.682;23.294;2024-03-23T04:51:36;94688.28;;;6.19;65.48
11971;BME280;6045;42.682;23.294;2024-03-23T04:54:04;94688.06;;;6.20;65.66
11971;BME280;6045;42.682;23.294;2024-03-23T04:56:31;94681.38;;;6.31;65.68
11971;BME280;6045;42.682;23.294;2024-03-23T04:58:58;94684.25;;;6.49;65.41
11971;BME280;6045;42.682;23.294;2024-03-23T05:01:27;94686.28;;;6.67;64.78
11971;BME280;6045;42.682;23.294;2024-03-23T05:03:53;94681.97;;;6.85;64.22
11971;BME280;6045;42.682;23.294;2024-03-23T05:06:20;94682.19;;;7.04;63.83
11971;BME280;6045;42.682;23.294;2024-03-23T05:08:46;94676.66;;;7.18;63.05
11971;BME280;6045;42.682;23.294;2024-03-23T05:11:13;94678.03;;;7.34;63.89
11971;BME280;6045;42.682;23.294;2024-03-23T05:13:39;94679.00;;;7.52;63.67
11971;BME280;6045;42.682;23.294;2024-03-23T05:16:07;94676.03;;;7.80;62.07
11971;BME280;6045;42.682;23.294;2024-03-23T05:18:34;94673.25;;;8.06;60.56
11971;BME280;6045;42.682;23.294;2024-03-23T05:21:01;94672.25;;;8.70;79.23
11971;BME280;6045;42.682;23.294;2024-03-23T05:23:28;94665.78;;;9.27;67.04
11971;BME280;6045;42.682;23.294;2024-03-23T05:25:55;94665.72;;;9.33;57.89
11971;BME280;6045;42.682;23.294;2024-03-23T05:28:21;94666.38;;;9.47;56.32
11971;BME280;6045;42.682;23.294;2024-03-23T05:30:50;94661.44;;;9.50;55.66
11971;BME280;6045;42.682;23.294;2024-03-23T05:33:18;94666.81;;;10.87;84.17
11971;BME280;6045;42.682;23.294;2024-03-23T05:35:45;94671.59;;;11.32;58.38
11971;BME280;6045;42.682;23.294;2024-03-23T05:38:11;94671.72;;;11.48;51.48
11971;BME280;6045;42.682;23.294;2024-03-23T05:40:38;94668.00;;;11.61;50.17
11971;BME280;6045;42.682;23.294;2024-03-23T05:43:05;94666.94;;;11.74;48.99
11971;BME280;6045;42.682;23.294;2024-03-23T05:45:33;94674.94;;;11.85;48.30
11971;BME280;6045;42.682;23.294;2024-03-23T05:47:58;94665.16;;;11.91;47.51
11971;BME280;6045;42.682;23.294;2024-03-23T05:50:27;94674.47;;;12.00;47.59
11971;BME280;6045;42.682;23.294;2024-03-23T05:52:53;94666.63;;;12.10;46.32
11971;BME280;6045;42.682;23.294;2024-03-23T05:55:20;94669.34;;;11.98;46.61
11971;BME280;6045;42.682;23.294;2024-03-23T05:57:45;94664.59;;;12.28;45.59
11971;BME280;6045;42.682;23.294;2024-03-23T06:00:13;94664.66;;;12.62;44.93
11971;BME280;6045;42.682;23.294;2024-03-23T06:02:41;94663.47;;;12.86;44.67
11971;BME280;6045;42.682;23.294;2024-03-23T06:05:10;94653.47;;;12.98;44.78
11971;BME280;6045;42.682;23.294;2024-03-23T06:07:37;94658.69;;;13.38;43.54
11971;BME280;6045;42.682;23.294;2024-03-23T06:10:05;94656.06;;;13.59;42.81
11971;BME280;6045;42.682;23.294;2024-03-23T06:12:31;94655.50;;;13.57;42.71
11971;BME280;6045;42.682;23.294;2024-03-23T06:14:58;94663.59;;;13.79;44.87
11971;BME280;6045;42.682;23.294;2024-03-23T06:17:24;94658.53;;;14.04;42.64
11971;BME280;6045;42.682;23.294;2024-03-23T06:19:51;94658.34;;;14.11;43.02
11971;BME280;6045;42.682;23.294;2024-03-23T06:22:16;94655.78;;;14.64;41.94
11971;BME280;6045;42.682;23.294;2024-03-23T06:24:45;94653.69;;;15.03;41.00
11971;BME280;6045;42.682;23.294;2024-03-23T06:27:11;94650.56;;;14.84;40.09
11971;BME280;6045;42.682;23.294;2024-03-23T06:29:38;94655.50;;;14.92;39.89
11971;BME280;6045;42.682;23.294;2024-03-23T06:32:04;94647.72;;;14.96;40.94
11971;BME280;6045;42.682;23.294;2024-03-23T06:34:31;94651.00;;;15.35;40.05
11971;BME280;6045;42.682;23.294;2024-03-23T06:36:57;94653.56;;;15.20;45.83
11971;BME280;6045;42.682;23.294;2024-03-23T06:39:24;94657.69;;;15.59;46.86
11971;BME280;6045;42.682;23.294;2024-03-23T06:41:54;94655.47;;;15.98;41.18
11971;BME280;6045;42.682;23.294;2024-03-23T06:44:22;94650.97;;;16.18;39.45
11971;BME280;6045;42.682;23.294;2024-03-23T06:46:48;94659.69;;;16.35;40.66
11971;BME280;6045;42.682;23.294;2024-03-23T06:49:15;94655.72;;;15.91;41.14
11971;BME280;6045;42.682;23.294;2024-03-23T06:51:41;94651.34;;;16.47;37.22
11971;BME280;6045;42.682;23.294;2024-03-23T06:54:08;94660.75;;;16.39;38.25
11971;BME280;6045;42.682;23.294;2024-03-23T06:56:34;94646.09;;;16.92;36.58
11971;BME280;6045;42.682;23.294;2024-03-23T06:59:02;94649.34;;;16.99;35.04
11971;BME280;6045;42.682;23.294;2024-03-23T07:01:28;94652.81;;;16.65;35.08
11971;BME280;6045;42.682;23.294;2024-03-23T07:03:55;94644.69;;;16.75;37.75
11971;BME280;6045;42.682;23.294;2024-03-23T07:06:21;94646.09;;;17.13;35.63
11971;BME280;6045;42.682;23.294;2024-03-23T07:08:48;94635.59;;;17.16;36.40
11971;BME280;6045;42.682;23.294;2024-03-23T07:11:18;94640.72;;;16.97;34.68
11971;BME280;6045;42.682;23.294;2024-03-23T07:13:46;94639.75;;;16.47;37.35
11971;BME280;6045;42.682;23.294;2024-03-23T07:16:16;94636.91;;;16.83;42.47
11971;BME280;6045;42.682;23.294;2024-03-23T07:18:43;94622.63;;;17.53;40.97
11971;BME280;6045;42.682;23.294;2024-03-23T07:21:10;94631.56;;;18.48;40.95
11971;BME280;6045;42.682;23.294;2024-03-23T07:23:37;94629.94;;;18.91;32.19
11971;BME280;6045;42.682;23.294;2024-03-23T07:26:04;94625.59;;;18.95;32.35
11971;BME280;6045;42.682;23.294;2024-03-23T07:28:31;94628.47;;;18.70;33.13
11971;BME280;6045;42.682;23.294;2024-03-23T07:31:02;94628.44;;;19.13;33.16
11971;BME280;6045;42.682;23.294;2024-03-23T07:33:32;94615.44;;;19.10;30.68
11971;BME280;6045;42.682;23.294;2024-03-23T07:35:58;94623.22;;;18.83;34.03
11971;BME280;6045;42.682;23.294;2024-03-23T07:38:26;94627.03;;;19.21;47.81
11971;BME280;6045;42.682;23.294;2024-03-23T07:40:52;94619.66;;;20.13;48.91
11971;BME280;6045;42.682;23.294;2024-03-23T07:43:21;94617.00;;;20.08;32.84
11971;BME280;6045;42.682;23.294;2024-03-23T07:45:51;94612.44;;;20.03;31.31
11971;BME280;6045;42.682;23.294;2024-03-23T07:48:20;94615.06;;;20.37;29.99
11971;BME280;6045;42.682;23.294;2024-03-23T07:50:56;94621.94;;;20.29;30.17
11971;BME280;6045;42.682;23.294;2024-03-23T07:53:24;94611.69;;;20.45;30.17
11971;BME280;6045;42.682;23.294;2024-03-23T07:56:00;94617.03;;;20.31;30.96
11971;BME280;6045;42.682;23.294;2024-03-23T07:58:28;94616.09;;;20.41;42.77
11971;BME280;6045;42.682;23.294;2024-03-23T08:00:54;94607.41;;;21.00;41.30
11971;BME280;6045;42.682;23.294;2024-03-23T08:03:22;94613.81;;;21.09;30.72
11971;BME280;6045;42.682;23.294;2024-03-23T08:05:48;94616.00;;;20.70;30.25
11971;BME280;6045;42.682;23.294;2024-03-23T08:08:16;94605.13;;;21.07;28.61
11971;BME280;6045;42.682;23.294;2024-03-23T08:10:49;94604.88;;;21.03;28.15
11971;BME280;6045;42.682;23.294;2024-03-23T08:13:16;94599.72;;;21.39;28.49
11971;BME280;6045;42.682;23.294;2024-03-23T08:15:42;94604.41;;;21.85;28.30
11971;BME280;6045;42.682;23.294;2024-03-23T08:18:11;94601.78;;;21.47;30.71
11971;BME280;6045;42.682;23.294;2024-03-23T08:20:37;94599.25;;;21.19;29.29
11971;BME280;6045;42.682;23.294;2024-03-23T08:23:05;94594.09;;;20.98;30.37
11971;BME280;6045;42.682;23.294;2024-03-23T08:25:33;94600.22;;;21.09;32.60
11971;BME280;6045;42.682;23.294;2024-03-23T08:28:00;94597.31;;;21.38;31.41
11971;BME280;6045;42.682;23.294;2024-03-23T08:30:30;94595.66;;;21.88;27.83
11971;BME280;6045;42.682;23.294;2024-03-23T08:32:57;94589.31;;;22.06;27.33
11971;BME280;6045;42.682;23.294;2024-03-23T08:35:22;94592.75;;;22.11;26.92
11971;BME280;6045;42.682;23.294;2024-03-23T08:37:49;94586.56;;;22.33;27.67
11971;BME280;6045;42.682;23.294;2024-03-23T08:40:15;94581.41;;;22.59;27.60
11971;BME280;6045;42.682;23.294;2024-03-23T08:42:44;94587.00;;;21.99;29.70
11971;BME280;6045;42.682;23.294;2024-03-23T08:45:09;94579.91;;;22.12;28.32
11971;BME280;6045;42.682;23.294;2024-03-23T08:47:36;94572.97;;;22.06;29.74
11971;BME280;6045;42.682;23.294;2024-03-23T08:50:02;94572.31;;;22.49;26.78
11971;BME280;6045;42.682;23.294;2024-03-23T08:52:30;94569.81;;;22.53;29.62
11971;BME280;6045;42.682;23.294;2024-03-23T08:54:56;94562.34;;;22.72;29.10
11971;BME280;6045;42.682;23.294;2024-03-23T08:57:25;94563.75;;;22.56;27.12
11971;BME280;6045;42.682;23.294;2024-03-23T08:59:52;94563.81;;;21.56;27.21
11971;BME280;6045;42.682;23.294;2024-03-23T09:02:19;94558.63;;;21.87;26.79
11971;BME280;6045;42.682;23.294;2024-03-23T09:04:45;94555.63;;;22.29;27.42
11971;BME280;6045;42.682;23.294;2024-03-23T09:07:12;94555.91;;;22.90;27.21
11971;BME280;6045;42.682;23.294;2024-03-23T09:09:38;94546.31;;;22.93;26.28
11971;BME280;6045;42.682;23.294;2024-03-23T09:12:05;94540.53;;;22.72;28.28
11971;BME280;6045;42.682;23.294;2024-03-23T09:14:32;94538.22;;;23.24;26.63
11971;BME280;6045;42.682;23.294;2024-03-23T09:17:00;94538.84;;;23.43;25.73
11971;BME280;6045;42.682;23.294;2024-03-23T09:19:28;94534.94;;;23.57;24.75
11971;BME280;6045;42.682;23.294;2024-03-23T09:21:55;94535.47;;;23.01;27.34
11971;BME280;6045;42.682;23.294;2024-03-23T09:24:21;94522.94;;;22.78;27.74
11971;BME280;6045;42.682;23.294;2024-03-23T09:26:48;94524.19;;;22.94;28.54
11971;BME280;6045;42.682;23.294;2024-03-23T09:29:15;94516.84;;;23.70;26.29
11971;BME280;6045;42.682;23.294;2024-03-23T09:31:41;94513.25;;;23.61;25.46
11971;BME280;6045;42.682;23.294;2024-03-23T09:34:09;94511.75;;;23.24;25.09
11971;BME280;6045;42.682;23.294;2024-03-23T09:36:35;94510.34;;;22.06;27.24
11971;BME280;6045;42.682;23.294;2024-03-23T09:39:02;94513.16;;;21.73;28.39
11971;BME280;6045;42.682;23.294;2024-03-23T09:41:29;94497.91;;;22.27;28.50
11971;BME280;6045;42.682;23.294;2024-03-23T09:43:56;94497.44;;;22.74;27.54
11971;BME280;6045;42.682;23.294;2024-03-23T09:46:22;94489.31;;;23.05;29.42
11971;BME280;6045;42.682;23.294;2024-03-23T09:48:49;94490.06;;;23.19;28.70
11971;BME280;6045;42.682;23.294;2024-03-23T09:51:16;94481.72;;;24.25;27.48
11971;BME280;6045;42.682;23.294;2024-03-23T09:53:44;94481.41;;;24.26;24.70
11971;BME280;6045;42.682;23.294;2024-03-23T09:56:10;94474.31;;;23.69;27.09
11971;BME280;6045;42.682;23.294;2024-03-23T09:58:36;94468.44;;;24.49;24.39
11971;BME280;6045;42.682;23.294;2024-03-23T10:01:03;94463.59;;;25.14;23.23
11971;BME280;6045;42.682;23.294;2024-03-23T10:03:30;94462.19;;;24.83;23.77
11971;BME280;6045;42.682;23.294;2024-03-23T10:06:02;94459.41;;;25.17;24.84
11971;BME280;6045;42.682;23.294;2024-03-23T10:08:34;94451.06;;;25.05;24.94
11971;BME280;6045;42.682;23.294;2024-03-23T10:11:12;94441.69;;;25.32;24.01
11971;BME280;6045;42.682;23.294;2024-03-23T10:13:41;94443.81;;;25.72;24.51
11971;BME280;6045;42.682;23.294;2024-03-23T10:16:08;94443.16;;;26.13;24.20
11971;BME280;6045;42.682;23.294;2024-03-23T10:18:37;94438.44;;;26.43;22.84
11971;BME280;6045;42.682;23.294;2024-03-23T10:21:08;94436.81;;;25.37;22.89
11971;BME280;6045;42.682;23.294;2024-03-23T10:23:38;94430.16;;;24.58;26.60
11971;BME280;6045;42.682;23.294;2024-03-23T10:26:16;94426.84;;;23.48;24.37
11971;BME280;6045;42.682;23.294;2024-03-23T10:28:53;94425.78;;;23.57;24.29
11971;BME280;6045;42.682;23.294;2024-03-23T10:31:20;94420.34;;;24.14;26.54
11971;BME280;6045;42.682;23.294;2024-03-23T10:33:47;94413.09;;;25.03;23.32
11971;BME280;6045;42.682;23.294;2024-03-23T10:36:13;94413.69;;;25.72;23.49
11971;BME280;6045;42.682;23.294;2024-03-23T10:38:43;94407.16;;;26.44;22.63
11971;BME280;6045;42.682;23.294;2024-03-23T10:41:10;94400.38;;;27.03;21.73
11971;BME280;6045;42.682;23.294;2024-03-23T10:43:38;94393.31;;;27.14;24.97
11971;BME280;6045;42.682;23.294;2024-03-23T10:46:04;94392.66;;;27.18;23.46
11971;BME280;6045;42.682;23.294;2024-03-23T10:48:33;94384.41;;;26.64;21.71
11971;BME280;6045;42.682;23.294;2024-03-23T10:50:59;94377.88;;;26.36;22.47
11971;BME280;6045;42.682;23.294;2024-03-23T10:53:28;94379.19;;;26.71;22.41
11971;BME280;6045;42.682;23.294;2024-03-23T10:55:56;94376.66;;;27.32;21.29
11971;BME280;6045;42.682;23.294;2024-03-23T10:58:26;94366.31;;;27.49;21.82
11971;BME280;6045;42.682;23.294;2024-03-23T11:00:53;94352.41;;;27.22;21.50
11971;BME280;6045;42.682;23.294;2024-03-23T11:03:30;94352.03;;;27.11;21.38
11971;BME280;6045;42.682;23.294;2024-03-23T11:05:57;94339.19;;;27.48;20.60
11971;BME280;6045;42.682;23.294;2024-03-23T11:08:31;94340.53;;;27.42;21.58
11971;BME280;6045;42.682;23.294;2024-03-23T11:13:52;94315.59;;;27.83;20.85
11971;BME280;6045;42.682;23.294;2024-03-23T11:16:22;94320.44;;;26.93;21.25
11971;BME280;6045;42.682;23.294;2024-03-23T11:18:49;94315.69;;;26.48;23.52
11971;BME280;6045;42.682;23.294;2024-03-23T11:21:51;94308.88;;;26.87;27.74
11971;BME280;6045;42.682;23.294;2024-03-23T11:24:18;94307.16;;;26.95;27.14
11971;BME280;6045;42.682;23.294;2024-03-23T11:26:46;94304.31;;;26.59;22.61
11971;BME280;6045;42.682;23.294;2024-03-23T11:29:14;94305.19;;;26.09;27.61
11971;BME280;6045;42.682;23.294;2024-03-23T11:31:46;94300.56;;;25.80;23.81
11971;BME280;6045;42.682;23.294;2024-03-23T11:34:12;94294.13;;;25.56;23.71
11971;BME280;6045;42.682;23.294;2024-03-23T11:36:39;94291.44;;;25.47;23.31
11971;BME280;6045;42.682;23.294;2024-03-23T11:39:12;94284.25;;;25.63;23.81
11971;BME280;6045;42.682;23.294;2024-03-23T11:41:47;94281.13;;;25.94;24.90
11971;BME280;6045;42.682;23.294;2024-03-23T11:44:18;94277.97;;;26.45;25.73
11971;BME280;6045;42.682;23.294;2024-03-23T11:46:46;94268.47;;;26.10;24.00
11971;BME280;6045;42.682;23.294;2024-03-23T11:49:21;94268.50;;;25.81;24.47
11971;BME280;6045;42.682;23.294;2024-03-23T11:51:48;94255.94;;;26.01;26.12
11971;BME280;6045;42.682;23.294;2024-03-23T11:54:14;94246.38;;;27.05;23.87
11971;BME280;6045;42.682;23.294;2024-03-23T11:56:54;94247.50;;;26.47;22.06
11971;BME280;6045;42.682;23.294;2024-03-23T11:59:32;94241.78;;;25.57;22.57
11971;BME280;6045;42.682;23.294;2024-03-23T12:01:59;94238.97;;;25.45;24.11
11971;BME280;6045;42.682;23.294;2024-03-23T12:04:26;94227.97;;;25.95;23.74
11971;BME280;6045;42.682;23.294;2024-03-23T12:07:09;94222.41;;;25.83;23.58
11971;BME280;6045;42.682;23.294;2024-03-23T12:09:35;94214.88;;;26.21;21.57
11971;BME280;6045;42.682;23.294;2024-03-23T12:12:07;94213.72;;;26.67;23.50
11971;BME280;6045;42.682;23.294;2024-03-23T12:14:34;94205.06;;;27.74;22.08
11971;BME280;6045;42.682;23.294;2024-03-23T12:17:08;94202.97;;;27.83;21.19
11971;BME280;6045;42.682;23.294;2024-03-23T12:19:34;94198.72;;;28.41;20.20
11971;BME280;6045;42.682;23.294;2024-03-23T12:22:03;94191.94;;;27.55;19.73
11971;BME280;6045;42.682;23.294;2024-03-23T12:24:29;94193.19;;;27.34;20.37
11971;BME280;6045;42.682;23.294;2024-03-23T12:27:00;94189.06;;;27.28;20.01
11971;BME280;6045;42.682;23.294;2024-03-23T12:29:27;94192.19;;;27.38;18.61
11971;BME280;6045;42.682;23.294;2024-03-23T12:31:55;94180.28;;;26.41;16.93
11971;BME280;6045;42.682;23.294;2024-03-23T12:34:21;94171.97;;;26.05;18.71
11971;BME280;6045;42.682;23.294;2024-03-23T12:36:48;94176.03;;;26.76;19.44
11971;BME280;6045;42.682;23.294;2024-03-23T12:39:14;94171.66;;;26.51;17.48
11971;BME280;6045;42.682;23.294;2024-03-23T12:41:41;94169.06;;;26.22;17.97
11971;BME280;6045;42.682;23.294;2024-03-23T12:44:07;94175.09;;;26.15;16.93
11971;BME280;6045;42.682;23.294;2024-03-23T12:46:37;94170.28;;;26.12;17.68
11971;BME280;6045;42.682;23.294;2024-03-23T12:49:05;94166.69;;;26.32;18.42
11971;BME280;6045;42.682;23.294;2024-03-23T12:51:31;94150.91;;;26.98;17.77
11971;BME280;6045;42.682;23.294;2024-03-23T12:53:57;94161.72;;;26.59;16.48
11971;BME280;6045;42.682;23.294;2024-03-23T12:56:25;94151.56;;;25.61;16.82
11971;BME280;6045;42.682;23.294;2024-03-23T12:58:51;94147.81;;;25.65;17.92
11971;BME280;6045;42.682;23.294;2024-03-23T13:01:19;94145.09;;;26.19;19.48
11971;BME280;6045;42.682;23.294;2024-03-23T13:03:46;94138.69;;;26.27;16.90
11971;BME280;6045;42.682;23.294;2024-03-23T13:06:15;94132.34;;;26.47;17.62
11971;BME280;6045;42.682;23.294;2024-03-23T13:08:41;94137.06;;;25.60;17.12
11971;BME280;6045;42.682;23.294;2024-03-23T13:11:08;94130.16;;;26.08;17.22
11971;BME280;6045;42.682;23.294;2024-03-23T13:13:35;94131.69;;;25.85;17.51
11971;BME280;6045;42.682;23.294;2024-03-23T13:16:03;94121.38;;;25.49;18.07
11971;BME280;6045;42.682;23.294;2024-03-23T13:18:29;94132.16;;;24.75;17.54
11971;BME280;6045;42.682;23.294;2024-03-23T13:20:57;94114.97;;;24.36;17.53
11971;BME280;6045;42.682;23.294;2024-03-23T13:23:24;94118.34;;;24.71;17.66
11971;BME280;6045;42.682;23.294;2024-03-23T13:25:51;94113.66;;;24.72;17.86
11971;BME280;6045;42.682;23.294;2024-03-23T13:28:18;94107.34;;;24.04;18.69
11971;BME280;6045;42.682;23.294;2024-03-23T13:30:52;94116.25;;;22.98;17.89
11971;BME280;6045;42.682;23.294;2024-03-23T13:33:18;94109.50;;;23.04;19.71
11971;BME280;6045;42.682;23.294;2024-03-23T13:35:51;94101.31;;;23.73;20.11
11971;BME280;6045;42.682;23.294;2024-03-23T13:38:17;94098.94;;;24.26;19.41
11971;BME280;6045;42.682;23.294;2024-03-23T13:40:55;94102.53;;;24.18;19.67
11971;BME280;6045;42.682;23.294;2024-03-23T13:43:22;94095.19;;;24.39;19.45
11971;BME280;6045;42.682;23.294;2024-03-23T13:45:52;94089.41;;;24.70;18.52
11971;BME280;6045;42.682;23.294;2024-03-23T13:48:19;94091.41;;;24.53;18.82
11971;BME280;6045;42.682;23.294;2024-03-23T13:50:46;94077.31;;;24.71;20.43
11971;BME280;6045;42.682;23.294;2024-03-23T13:53:13;94079.91;;;24.97;20.11
11971;BME280;6045;42.682;23.294;2024-03-23T13:55:46;94074.59;;;24.80;18.00
11971;BME280;6045;42.682;23.294;2024-03-23T13:58:14;94070.78;;;23.88;18.59
11971;BME280;6045;42.682;23.294;2024-03-23T14:00:41;94071.03;;;23.32;20.08
11971;BME280;6045;42.682;23.294;2024-03-23T14:03:08;94069.25;;;23.19;20.20